sensor_id;sensor_type;location;lat;lon;timestamp;pressure;altitude;pressure_sealevel;temperature
68012;BMP180;54794;48.348;7.878;2022-07-29T00:01:01;98821.00;;;27.20
68012;BMP180;54794;48.348;7.878;2022-07-29T00:03:28;98814.00;;;27.20
68012;BMP180;54794;48.348;7.878;2022-07-29T00:05:55;98812.00;;;27.20
68012;BMP180;54794;48.348;7.878;2022-07-29T00:08:22;98806.00;;;27.20
68012;BMP180;54794;48.348;7.878;2022-07-29T00:10:49;98821.00;;;27.20
68012;BMP180;54794;48.348;7.878;2022-07-29T00:13:16;98818.00;;;27.10
68012;BMP180;54794;48.348;7.878;2022-07-29T00:15:57;98818.00;;;27.10
68012;BMP180;54794;48.348;7.878;2022-07-29T00:18:30;98822.00;;;27.10
68012;BMP180;54794;48.348;7.878;2022-07-29T00:20:57;98820.00;;;27.10
68012;BMP180;54794;48.348;7.878;2022-07-29T00:23:24;98816.00;;;27.10
68012;BMP180;54794;48.348;7.878;2022-07-29T00:25:50;98815.00;;;27.00
68012;BMP180;54794;48.348;7.878;2022-07-29T00:28:17;98826.00;;;27.00
68012;BMP180;54794;48.348;7.878;2022-07-29T00:30:44;98808.00;;;27.00
68012;BMP180;54794;48.348;7.878;2022-07-29T00:33:11;98811.00;;;26.90
68012;BMP180;54794;48.348;7.878;2022-07-29T00:35:38;98819.00;;;26.90
68012;BMP180;54794;48.348;7.878;2022-07-29T00:38:18;98809.00;;;26.80
68012;BMP180;54794;48.348;7.878;2022-07-29T00:40:46;98808.00;;;26.80
68012;BMP180;54794;48.348;7.878;2022-07-29T00:43:14;98817.00;;;26.70
68012;BMP180;54794;48.348;7.878;2022-07-29T00:45:42;98810.00;;;26.70
68012;BMP180;54794;48.348;7.878;2022-07-29T00:48:09;98788.00;;;26.60
68012;BMP180;54794;48.348;7.878;2022-07-29T00:50:37;98793.00;;;26.60
68012;BMP180;54794;48.348;7.878;2022-07-29T00:53:06;98804.00;;;26.50
68012;BMP180;54794;48.348;7.878;2022-07-29T00:55:34;98787.00;;;26.50
68012;BMP180;54794;48.348;7.878;2022-07-29T00:58:01;98794.00;;;26.50
68012;BMP180;54794;48.348;7.878;2022-07-29T01:00:29;98798.00;;;26.40
68012;BMP180;54794;48.348;7.878;2022-07-29T01:02:56;98794.00;;;26.40
68012;BMP180;54794;48.348;7.878;2022-07-29T01:05:26;98792.00;;;26.40
68012;BMP180;54794;48.348;7.878;2022-07-29T01:08:15;98799.00;;;26.30
68012;BMP180;54794;48.348;7.878;2022-07-29T01:10:45;98802.00;;;26.30
68012;BMP180;54794;48.348;7.878;2022-07-29T01:13:15;98796.00;;;26.20
68012;BMP180;54794;48.348;7.878;2022-07-29T01:15:59;98783.00;;;26.10
68012;BMP180;54794;48.348;7.878;2022-07-29T01:18:44;98793.00;;;26.10
68012;BMP180;54794;48.348;7.878;2022-07-29T01:21:51;98788.00;;;26.00
68012;BMP180;54794;48.348;7.878;2022-07-29T01:30:17;98787.00;;;25.80
68012;BMP180;54794;48.348;7.878;2022-07-29T01:32:47;98787.00;;;25.70
68012;BMP180;54794;48.348;7.878;2022-07-29T01:35:25;98774.00;;;25.70
68012;BMP180;54794;48.348;7.878;2022-07-29T01:40:53;98780.00;;;25.60
68012;BMP180;54794;48.348;7.878;2022-07-29T01:43:36;98760.00;;;25.60
68012;BMP180;54794;48.348;7.878;2022-07-29T01:46:12;98787.00;;;25.60
68012;BMP180;54794;48.348;7.878;2022-07-29T01:49:15;98784.00;;;25.50
68012;BMP180;54794;48.348;7.878;2022-07-29T01:51:58;98792.00;;;25.60
68012;BMP180;54794;48.348;7.878;2022-07-29T01:54:35;98784.00;;;25.60
68012;BMP180;54794;48.348;7.878;2022-07-29T01:57:06;98802.00;;;25.50
68012;BMP180;54794;48.348;7.878;2022-07-29T01:59:37;98791.00;;;25.50
68012;BMP180;54794;48.348;7.878;2022-07-29T02:02:06;98803.00;;;25.50
68012;BMP180;54794;48.348;7.878;2022-07-29T02:04:37;98800.00;;;25.50
68012;BMP180;54794;48.348;7.878;2022-07-29T02:07:07;98803.00;;;25.50
68012;BMP180;54794;48.348;7.878;2022-07-29T02:09:37;98787.00;;;25.50
68012;BMP180;54794;48.348;7.878;2022-07-29T02:12:07;98804.00;;;25.50
68012;BMP180;54794;48.348;7.878;2022-07-29T02:14:44;98800.00;;;25.40
68012;BMP180;54794;48.348;7.878;2022-07-29T02:17:17;98804.00;;;25.40
68012;BMP180;54794;48.348;7.878;2022-07-29T02:19:48;98801.00;;;25.40
68012;BMP180;54794;48.348;7.878;2022-07-29T02:22:18;98803.00;;;25.30
68012;BMP180;54794;48.348;7.878;2022-07-29T02:24:47;98807.00;;;25.30
68012;BMP180;54794;48.348;7.878;2022-07-29T02:27:17;98794.00;;;25.30
68012;BMP180;54794;48.348;7.878;2022-07-29T02:29:48;98801.00;;;25.20
68012;BMP180;54794;48.348;7.878;2022-07-29T02:32:16;98804.00;;;25.20
68012;BMP180;54794;48.348;7.878;2022-07-29T02:34:46;98801.00;;;25.10
68012;BMP180;54794;48.348;7.878;2022-07-29T02:37:16;98807.00;;;25.10
68012;BMP180;54794;48.348;7.878;2022-07-29T02:39:45;98797.00;;;25.00
68012;BMP180;54794;48.348;7.878;2022-07-29T02:42:17;98811.00;;;25.00
68012;BMP180;54794;48.348;7.878;2022-07-29T02:44:44;98800.00;;;25.00
68012;BMP180;54794;48.348;7.878;2022-07-29T02:47:21;98802.00;;;24.90
68012;BMP180;54794;48.348;7.878;2022-07-29T02:50:06;98798.00;;;24.80
68012;BMP180;54794;48.348;7.878;2022-07-29T02:52:54;98804.00;;;24.80
68012;BMP180;54794;48.348;7.878;2022-07-29T02:55:37;98786.00;;;24.70
68012;BMP180;54794;48.348;7.878;2022-07-29T03:00:53;98799.00;;;24.70
68012;BMP180;54794;48.348;7.878;2022-07-29T03:03:21;98806.00;;;24.60
68012;BMP180;54794;48.348;7.878;2022-07-29T03:05:55;98791.00;;;24.60
68012;BMP180;54794;48.348;7.878;2022-07-29T03:08:24;98808.00;;;24.60
68012;BMP180;54794;48.348;7.878;2022-07-29T03:10:52;98796.00;;;24.50
68012;BMP180;54794;48.348;7.878;2022-07-29T03:13:19;98793.00;;;24.50
68012;BMP180;54794;48.348;7.878;2022-07-29T03:15:47;98794.00;;;24.50
68012;BMP180;54794;48.348;7.878;2022-07-29T03:18:15;98808.00;;;24.40
68012;BMP180;54794;48.348;7.878;2022-07-29T03:20:42;98804.00;;;24.30
68012;BMP180;54794;48.348;7.878;2022-07-29T03:23:09;98818.00;;;24.30
68012;BMP180;54794;48.348;7.878;2022-07-29T03:25:36;98813.00;;;24.30
68012;BMP180;54794;48.348;7.878;2022-07-29T03:28:04;98815.00;;;24.30
68012;BMP180;54794;48.348;7.878;2022-07-29T03:30:31;98814.00;;;24.30
68012;BMP180;54794;48.348;7.878;2022-07-29T03:32:58;98813.00;;;24.20
68012;BMP180;54794;48.348;7.878;2022-07-29T03:35:25;98804.00;;;24.20
68012;BMP180;54794;48.348;7.878;2022-07-29T03:37:52;98807.00;;;24.20
68012;BMP180;54794;48.348;7.878;2022-07-29T03:40:30;98817.00;;;24.20
68012;BMP180;54794;48.348;7.878;2022-07-29T03:43:00;98807.00;;;24.20
68012;BMP180;54794;48.348;7.878;2022-07-29T03:45:31;98815.00;;;24.20
68012;BMP180;54794;48.348;7.878;2022-07-29T03:48:08;98814.00;;;24.10
68012;BMP180;54794;48.348;7.878;2022-07-29T03:50:36;98817.00;;;24.10
68012;BMP180;54794;48.348;7.878;2022-07-29T03:53:03;98828.00;;;24.10
68012;BMP180;54794;48.348;7.878;2022-07-29T03:55:37;98815.00;;;24.10
68012;BMP180;54794;48.348;7.878;2022-07-29T03:58:08;98821.00;;;24.10
68012;BMP180;54794;48.348;7.878;2022-07-29T04:00:36;98817.00;;;24.10
68012;BMP180;54794;48.348;7.878;2022-07-29T04:03:04;98822.00;;;24.00
68012;BMP180;54794;48.348;7.878;2022-07-29T04:05:37;98822.00;;;24.00
68012;BMP180;54794;48.348;7.878;2022-07-29T04:08:04;98811.00;;;24.00
68012;BMP180;54794;48.348;7.878;2022-07-29T04:10:31;98820.00;;;23.90
68012;BMP180;54794;48.348;7.878;2022-07-29T04:13:01;98822.00;;;23.90
68012;BMP180;54794;48.348;7.878;2022-07-29T04:15:28;98826.00;;;23.90
68012;BMP180;54794;48.348;7.878;2022-07-29T04:17:58;98833.00;;;23.90
68012;BMP180;54794;48.348;7.878;2022-07-29T04:20:25;98833.00;;;23.90
68012;BMP180;54794;48.348;7.878;2022-07-29T04:22:52;98838.00;;;23.90
68012;BMP180;54794;48.348;7.878;2022-07-29T04:25:19;98842.00;;;23.90
68012;BMP180;54794;48.348;7.878;2022-07-29T04:27:46;98842.00;;;23.90
68012;BMP180;54794;48.348;7.878;2022-07-29T04:30:30;98842.00;;;23.80
68012;BMP180;54794;48.348;7.878;2022-07-29T04:32:57;98837.00;;;23.90
68012;BMP180;54794;48.348;7.878;2022-07-29T04:35:24;98840.00;;;23.90
68012;BMP180;54794;48.348;7.878;2022-07-29T04:37:51;98844.00;;;23.90
68012;BMP180;54794;48.348;7.878;2022-07-29T04:40:18;98832.00;;;23.90
68012;BMP180;54794;48.348;7.878;2022-07-29T04:42:46;98850.00;;;23.90
68012;BMP180;54794;48.348;7.878;2022-07-29T04:45:15;98838.00;;;23.90
68012;BMP180;54794;48.348;7.878;2022-07-29T04:47:48;98839.00;;;23.90
68012;BMP180;54794;48.348;7.878;2022-07-29T04:50:15;98853.00;;;23.90
68012;BMP180;54794;48.348;7.878;2022-07-29T04:52:42;98853.00;;;23.90
68012;BMP180;54794;48.348;7.878;2022-07-29T04:55:09;98846.00;;;23.90
68012;BMP180;54794;48.348;7.878;2022-07-29T04:57:36;98825.00;;;23.90
68012;BMP180;54794;48.348;7.878;2022-07-29T05:00:05;98857.00;;;23.90
68012;BMP180;54794;48.348;7.878;2022-07-29T05:02:32;98862.00;;;24.00
68012;BMP180;54794;48.348;7.878;2022-07-29T05:04:59;98857.00;;;24.00
68012;BMP180;54794;48.348;7.878;2022-07-29T05:07:26;98861.00;;;24.00
68012;BMP180;54794;48.348;7.878;2022-07-29T05:09:53;98867.00;;;24.00
68012;BMP180;54794;48.348;7.878;2022-07-29T05:12:20;98875.00;;;24.00
68012;BMP180;54794;48.348;7.878;2022-07-29T05:14:47;98872.00;;;24.00
68012;BMP180;54794;48.348;7.878;2022-07-29T05:17:14;98879.00;;;24.00
68012;BMP180;54794;48.348;7.878;2022-07-29T05:19:41;98872.00;;;24.00
68012;BMP180;54794;48.348;7.878;2022-07-29T05:22:08;98878.00;;;24.10
68012;BMP180;54794;48.348;7.878;2022-07-29T05:24:35;98869.00;;;24.10
68012;BMP180;54794;48.348;7.878;2022-07-29T05:27:01;98876.00;;;24.10
68012;BMP180;54794;48.348;7.878;2022-07-29T05:29:28;98874.00;;;24.10
68012;BMP180;54794;48.348;7.878;2022-07-29T05:32:12;98886.00;;;24.20
68012;BMP180;54794;48.348;7.878;2022-07-29T05:34:40;98884.00;;;24.20
68012;BMP180;54794;48.348;7.878;2022-07-29T05:37:19;98874.00;;;24.20
68012;BMP180;54794;48.348;7.878;2022-07-29T05:39:46;98883.00;;;24.30
68012;BMP180;54794;48.348;7.878;2022-07-29T05:42:16;98873.00;;;24.30
68012;BMP180;54794;48.348;7.878;2022-07-29T05:44:43;98873.00;;;24.40
68012;BMP180;54794;48.348;7.878;2022-07-29T05:47:10;98883.00;;;24.40
68012;BMP180;54794;48.348;7.878;2022-07-29T05:49:38;98891.00;;;24.50
68012;BMP180;54794;48.348;7.878;2022-07-29T05:52:05;98879.00;;;24.50
68012;BMP180;54794;48.348;7.878;2022-07-29T05:54:32;98877.00;;;24.60
68012;BMP180;54794;48.348;7.878;2022-07-29T05:56:59;98886.00;;;24.70
68012;BMP180;54794;48.348;7.878;2022-07-29T05:59:26;98894.00;;;24.70
68012;BMP180;54794;48.348;7.878;2022-07-29T06:01:56;98901.00;;;24.80
68012;BMP180;54794;48.348;7.878;2022-07-29T06:04:24;98887.00;;;24.90
68012;BMP180;54794;48.348;7.878;2022-07-29T06:06:51;98904.00;;;24.90
68012;BMP180;54794;48.348;7.878;2022-07-29T06:09:19;98908.00;;;25.00
68012;BMP180;54794;48.348;7.878;2022-07-29T06:11:46;98907.00;;;25.10
68012;BMP180;54794;48.348;7.878;2022-07-29T06:14:13;98911.00;;;25.20
68012;BMP180;54794;48.348;7.878;2022-07-29T06:16:40;98906.00;;;25.20
68012;BMP180;54794;48.348;7.878;2022-07-29T06:19:07;98892.00;;;25.30
68012;BMP180;54794;48.348;7.878;2022-07-29T06:21:35;98898.00;;;25.30
68012;BMP180;54794;48.348;7.878;2022-07-29T06:24:08;98890.00;;;25.40
68012;BMP180;54794;48.348;7.878;2022-07-29T06:26:35;98907.00;;;25.40
68012;BMP180;54794;48.348;7.878;2022-07-29T06:29:06;98911.00;;;25.50
68012;BMP180;54794;48.348;7.878;2022-07-29T06:31:34;98910.00;;;25.50
68012;BMP180;54794;48.348;7.878;2022-07-29T06:34:01;98907.00;;;25.60
68012;BMP180;54794;48.348;7.878;2022-07-29T06:36:29;98907.00;;;25.70
68012;BMP180;54794;48.348;7.878;2022-07-29T06:38:57;98895.00;;;25.70
68012;BMP180;54794;48.348;7.878;2022-07-29T06:41:24;98904.00;;;25.80
68012;BMP180;54794;48.348;7.878;2022-07-29T06:43:52;98909.00;;;25.90
68012;BMP180;54794;48.348;7.878;2022-07-29T06:46:22;98919.00;;;26.00
68012;BMP180;54794;48.348;7.878;2022-07-29T06:48:51;98909.00;;;26.00
68012;BMP180;54794;48.348;7.878;2022-07-29T06:51:20;98912.00;;;26.20
68012;BMP180;54794;48.348;7.878;2022-07-29T06:53:51;98918.00;;;26.20
68012;BMP180;54794;48.348;7.878;2022-07-29T06:56:30;98924.00;;;26.30
68012;BMP180;54794;48.348;7.878;2022-07-29T06:59:06;98921.00;;;26.40
68012;BMP180;54794;48.348;7.878;2022-07-29T07:01:36;98930.00;;;26.50
68012;BMP180;54794;48.348;7.878;2022-07-29T07:04:04;98931.00;;;26.50
68012;BMP180;54794;48.348;7.878;2022-07-29T07:06:32;98935.00;;;26.50
68012;BMP180;54794;48.348;7.878;2022-07-29T07:08:59;98924.00;;;26.70
68012;BMP180;54794;48.348;7.878;2022-07-29T07:11:27;98929.00;;;26.70
68012;BMP180;54794;48.348;7.878;2022-07-29T07:13:55;98942.00;;;26.70
68012;BMP180;54794;48.348;7.878;2022-07-29T07:16:28;98935.00;;;26.80
68012;BMP180;54794;48.348;7.878;2022-07-29T07:18:56;98935.00;;;26.90
68012;BMP180;54794;48.348;7.878;2022-07-29T07:21:23;98932.00;;;27.00
68012;BMP180;54794;48.348;7.878;2022-07-29T07:23:50;98932.00;;;27.10
68012;BMP180;54794;48.348;7.878;2022-07-29T07:26:17;98942.00;;;27.20
68012;BMP180;54794;48.348;7.878;2022-07-29T07:28:44;98942.00;;;27.30
68012;BMP180;54794;48.348;7.878;2022-07-29T07:31:11;98939.00;;;27.40
68012;BMP180;54794;48.348;7.878;2022-07-29T07:33:39;98956.00;;;27.40
68012;BMP180;54794;48.348;7.878;2022-07-29T07:36:06;98959.00;;;27.40
68012;BMP180;54794;48.348;7.878;2022-07-29T07:38:33;98953.00;;;27.50
68012;BMP180;54794;48.348;7.878;2022-07-29T07:41:01;98959.00;;;27.60
68012;BMP180;54794;48.348;7.878;2022-07-29T07:43:28;98975.00;;;27.60
68012;BMP180;54794;48.348;7.878;2022-07-29T07:45:55;98951.00;;;27.60
68012;BMP180;54794;48.348;7.878;2022-07-29T07:48:22;98968.00;;;27.70
68012;BMP180;54794;48.348;7.878;2022-07-29T07:50:49;98965.00;;;27.70
68012;BMP180;54794;48.348;7.878;2022-07-29T07:53:17;98968.00;;;27.80
68012;BMP180;54794;48.348;7.878;2022-07-29T07:55:45;98967.00;;;27.80
68012;BMP180;54794;48.348;7.878;2022-07-29T07:58:32;98968.00;;;27.90
68012;BMP180;54794;48.348;7.878;2022-07-29T08:00:59;98958.00;;;28.00
68012;BMP180;54794;48.348;7.878;2022-07-29T08:03:26;98963.00;;;28.10
68012;BMP180;54794;48.348;7.878;2022-07-29T08:05:53;98961.00;;;28.10
68012;BMP180;54794;48.348;7.878;2022-07-29T08:08:21;98968.00;;;28.10
68012;BMP180;54794;48.348;7.878;2022-07-29T08:10:48;98965.00;;;28.20
68012;BMP180;54794;48.348;7.878;2022-07-29T08:13:26;98972.00;;;28.20
68012;BMP180;54794;48.348;7.878;2022-07-29T08:15:54;98972.00;;;28.30
68012;BMP180;54794;48.348;7.878;2022-07-29T08:18:30;98978.00;;;28.40
68012;BMP180;54794;48.348;7.878;2022-07-29T08:20:58;98969.00;;;28.40
68012;BMP180;54794;48.348;7.878;2022-07-29T08:23:25;98959.00;;;28.50
68012;BMP180;54794;48.348;7.878;2022-07-29T08:26:13;98973.00;;;28.60
68012;BMP180;54794;48.348;7.878;2022-07-29T08:28:43;98981.00;;;28.60
68012;BMP180;54794;48.348;7.878;2022-07-29T08:31:13;98982.00;;;28.60
68012;BMP180;54794;48.348;7.878;2022-07-29T08:33:41;98985.00;;;28.70
68012;BMP180;54794;48.348;7.878;2022-07-29T08:36:08;98997.00;;;28.70
68012;BMP180;54794;48.348;7.878;2022-07-29T08:38:35;98978.00;;;28.70
68012;BMP180;54794;48.348;7.878;2022-07-29T08:41:02;98993.00;;;28.80
68012;BMP180;54794;48.348;7.878;2022-07-29T08:43:30;98993.00;;;28.80
68012;BMP180;54794;48.348;7.878;2022-07-29T08:45:57;98997.00;;;28.90
68012;BMP180;54794;48.348;7.878;2022-07-29T08:48:24;98988.00;;;28.90
68012;BMP180;54794;48.348;7.878;2022-07-29T08:50:55;98987.00;;;29.00
68012;BMP180;54794;48.348;7.878;2022-07-29T08:53:26;98994.00;;;29.00
68012;BMP180;54794;48.348;7.878;2022-07-29T08:55:55;98990.00;;;29.10
68012;BMP180;54794;48.348;7.878;2022-07-29T08:58:24;98987.00;;;29.20
68012;BMP180;54794;48.348;7.878;2022-07-29T09:00:55;98984.00;;;29.30
68012;BMP180;54794;48.348;7.878;2022-07-29T09:03:29;98991.00;;;29.30
68012;BMP180;54794;48.348;7.878;2022-07-29T09:06:00;98988.00;;;29.40
68012;BMP180;54794;48.348;7.878;2022-07-29T09:08:28;98998.00;;;29.40
68012;BMP180;54794;48.348;7.878;2022-07-29T09:10:55;98989.00;;;29.50
68012;BMP180;54794;48.348;7.878;2022-07-29T09:13:23;98993.00;;;29.50
68012;BMP180;54794;48.348;7.878;2022-07-29T09:15:50;98997.00;;;29.50
68012;BMP180;54794;48.348;7.878;2022-07-29T09:21:05;98991.00;;;29.60
68012;BMP180;54794;48.348;7.878;2022-07-29T09:24:12;98973.00;;;29.70
68012;BMP180;54794;48.348;7.878;2022-07-29T09:26:45;98990.00;;;29.60
68012;BMP180;54794;48.348;7.878;2022-07-29T09:29:21;98993.00;;;29.70
68012;BMP180;54794;48.348;7.878;2022-07-29T09:31:51;98982.00;;;29.70
68012;BMP180;54794;48.348;7.878;2022-07-29T09:34:28;98986.00;;;29.70
68012;BMP180;54794;48.348;7.878;2022-07-29T09:36:58;98973.00;;;29.80
68012;BMP180;54794;48.348;7.878;2022-07-29T09:39:36;98979.00;;;29.80
68012;BMP180;54794;48.348;7.878;2022-07-29T09:42:06;98963.00;;;29.90
68012;BMP180;54794;48.348;7.878;2022-07-29T09:44:50;98979.00;;;30.00
68012;BMP180;54794;48.348;7.878;2022-07-29T09:47:18;98957.00;;;30.20
68012;BMP180;54794;48.348;7.878;2022-07-29T09:49:55;98972.00;;;30.40
68012;BMP180;54794;48.348;7.878;2022-07-29T09:52:29;98963.00;;;30.50
68012;BMP180;54794;48.348;7.878;2022-07-29T09:55:08;98966.00;;;30.60
68012;BMP180;54794;48.348;7.878;2022-07-29T09:57:39;98971.00;;;30.80
68012;BMP180;54794;48.348;7.878;2022-07-29T10:00:13;98986.00;;;30.90
68012;BMP180;54794;48.348;7.878;2022-07-29T10:02:44;98986.00;;;31.00
68012;BMP180;54794;48.348;7.878;2022-07-29T10:05:27;98988.00;;;31.20
68012;BMP180;54794;48.348;7.878;2022-07-29T10:08:03;98975.00;;;31.30
68012;BMP180;54794;48.348;7.878;2022-07-29T10:10:33;98985.00;;;31.40
68012;BMP180;54794;48.348;7.878;2022-07-29T10:13:05;98983.00;;;31.50
68012;BMP180;54794;48.348;7.878;2022-07-29T10:15:41;98967.00;;;31.60
68012;BMP180;54794;48.348;7.878;2022-07-29T10:18:13;98981.00;;;31.70
68012;BMP180;54794;48.348;7.878;2022-07-29T10:20:41;98976.00;;;31.80
68012;BMP180;54794;48.348;7.878;2022-07-29T10:23:08;98980.00;;;31.90
68012;BMP180;54794;48.348;7.878;2022-07-29T10:25:36;98968.00;;;32.00
68012;BMP180;54794;48.348;7.878;2022-07-29T10:28:05;98972.00;;;32.10
68012;BMP180;54794;48.348;7.878;2022-07-29T10:30:32;98968.00;;;32.20
68012;BMP180;54794;48.348;7.878;2022-07-29T10:44:46;98978.00;;;32.50
68012;BMP180;54794;48.348;7.878;2022-07-29T10:47:26;98974.00;;;32.50
68012;BMP180;54794;48.348;7.878;2022-07-29T10:50:03;98971.00;;;32.60
68012;BMP180;54794;48.348;7.878;2022-07-29T10:52:51;98961.00;;;32.70
68012;BMP180;54794;48.348;7.878;2022-07-29T10:55:36;98979.00;;;32.70
68012;BMP180;54794;48.348;7.878;2022-07-29T10:58:21;98974.00;;;32.80
68012;BMP180;54794;48.348;7.878;2022-07-29T11:00:53;98979.00;;;32.80
68012;BMP180;54794;48.348;7.878;2022-07-29T11:09:29;98980.00;;;32.80
68012;BMP180;54794;48.348;7.878;2022-07-29T11:15:07;98978.00;;;32.80
68012;BMP180;54794;48.348;7.878;2022-07-29T11:20:50;98969.00;;;32.80
68012;BMP180;54794;48.348;7.878;2022-07-29T11:23:33;98975.00;;;32.80
68012;BMP180;54794;48.348;7.878;2022-07-29T11:28:54;98984.00;;;32.80
68012;BMP180;54794;48.348;7.878;2022-07-29T11:31:51;98982.00;;;32.80
68012;BMP180;54794;48.348;7.878;2022-07-29T11:34:27;98980.00;;;32.80
68012;BMP180;54794;48.348;7.878;2022-07-29T11:42:38;98982.00;;;32.90
68012;BMP180;54794;48.348;7.878;2022-07-29T11:48:00;98984.00;;;32.90
68012;BMP180;54794;48.348;7.878;2022-07-29T11:50:48;98981.00;;;32.90
68012;BMP180;54794;48.348;7.878;2022-07-29T11:53:15;98978.00;;;33.00
68012;BMP180;54794;48.348;7.878;2022-07-29T11:55:43;98981.00;;;32.90
68012;BMP180;54794;48.348;7.878;2022-07-29T11:58:22;98984.00;;;32.90
68012;BMP180;54794;48.348;7.878;2022-07-29T12:00:53;98983.00;;;32.90
68012;BMP180;54794;48.348;7.878;2022-07-29T12:03:27;98981.00;;;32.90
68012;BMP180;54794;48.348;7.878;2022-07-29T12:06:10;98985.00;;;32.80
68012;BMP180;54794;48.348;7.878;2022-07-29T12:08:42;98984.00;;;32.80
68012;BMP180;54794;48.348;7.878;2022-07-29T12:11:18;98984.00;;;32.70
68012;BMP180;54794;48.348;7.878;2022-07-29T12:13:48;98992.00;;;32.70
68012;BMP180;54794;48.348;7.878;2022-07-29T12:16:16;98983.00;;;32.60
68012;BMP180;54794;48.348;7.878;2022-07-29T12:19:04;98967.00;;;32.60
68012;BMP180;54794;48.348;7.878;2022-07-29T12:21:49;98986.00;;;32.50
68012;BMP180;54794;48.348;7.878;2022-07-29T12:24:26;98983.00;;;32.50
68012;BMP180;54794;48.348;7.878;2022-07-29T12:26:56;98987.00;;;32.50
68012;BMP180;54794;48.348;7.878;2022-07-29T12:29:24;98983.00;;;32.60
68012;BMP180;54794;48.348;7.878;2022-07-29T12:32:01;98987.00;;;32.40
68012;BMP180;54794;48.348;7.878;2022-07-29T12:34:30;98989.00;;;32.50
68012;BMP180;54794;48.348;7.878;2022-07-29T12:36:57;98986.00;;;32.50
68012;BMP180;54794;48.348;7.878;2022-07-29T12:39:25;98998.00;;;32.50
68012;BMP180;54794;48.348;7.878;2022-07-29T12:41:54;98996.00;;;32.40
68012;BMP180;54794;48.348;7.878;2022-07-29T12:44:51;98991.00;;;32.40
68012;BMP180;54794;48.348;7.878;2022-07-29T12:47:19;98983.00;;;32.40
68012;BMP180;54794;48.348;7.878;2022-07-29T12:49:47;98988.00;;;32.40
68012;BMP180;54794;48.348;7.878;2022-07-29T12:52:27;98983.00;;;32.40
68012;BMP180;54794;48.348;7.878;2022-07-29T12:54:54;98988.00;;;32.40
68012;BMP180;54794;48.348;7.878;2022-07-29T12:57:21;98973.00;;;32.40
68012;BMP180;54794;48.348;7.878;2022-07-29T13:00:11;98987.00;;;32.40
68012;BMP180;54794;48.348;7.878;2022-07-29T13:02:42;98984.00;;;32.40
68012;BMP180;54794;48.348;7.878;2022-07-29T13:05:10;98982.00;;;32.40
68012;BMP180;54794;48.348;7.878;2022-07-29T13:07:39;98985.00;;;32.40
68012;BMP180;54794;48.348;7.878;2022-07-29T13:10:23;98976.00;;;32.40
68012;BMP180;54794;48.348;7.878;2022-07-29T13:15:42;98986.00;;;32.30
68012;BMP180;54794;48.348;7.878;2022-07-29T13:18:31;98985.00;;;32.40
68012;BMP180;54794;48.348;7.878;2022-07-29T13:21:14;98996.00;;;32.40
68012;BMP180;54794;48.348;7.878;2022-07-29T13:23:42;98977.00;;;32.40
68012;BMP180;54794;48.348;7.878;2022-07-29T13:26:10;98995.00;;;32.40
68012;BMP180;54794;48.348;7.878;2022-07-29T13:28:42;98996.00;;;32.40
68012;BMP180;54794;48.348;7.878;2022-07-29T13:31:10;98987.00;;;32.40
68012;BMP180;54794;48.348;7.878;2022-07-29T13:33:37;98992.00;;;32.40
68012;BMP180;54794;48.348;7.878;2022-07-29T13:36:04;98991.00;;;32.50
68012;BMP180;54794;48.348;7.878;2022-07-29T13:38:31;98993.00;;;32.40
68012;BMP180;54794;48.348;7.878;2022-07-29T13:40:58;98975.00;;;32.40
68012;BMP180;54794;48.348;7.878;2022-07-29T13:43:25;98983.00;;;32.40
68012;BMP180;54794;48.348;7.878;2022-07-29T13:45:52;98988.00;;;32.40
68012;BMP180;54794;48.348;7.878;2022-07-29T13:48:19;98976.00;;;32.40
68012;BMP180;54794;48.348;7.878;2022-07-29T13:50:46;98984.00;;;32.50
68012;BMP180;54794;48.348;7.878;2022-07-29T13:53:14;98976.00;;;32.50
68012;BMP180;54794;48.348;7.878;2022-07-29T13:55:44;98980.00;;;32.50
68012;BMP180;54794;48.348;7.878;2022-07-29T13:58:10;98971.00;;;32.40
68012;BMP180;54794;48.348;7.878;2022-07-29T14:00:37;98976.00;;;32.50
68012;BMP180;54794;48.348;7.878;2022-07-29T14:03:04;98980.00;;;32.50
68012;BMP180;54794;48.348;7.878;2022-07-29T14:05:32;98986.00;;;32.50
68012;BMP180;54794;48.348;7.878;2022-07-29T14:07:59;98983.00;;;32.50
68012;BMP180;54794;48.348;7.878;2022-07-29T14:10:26;98981.00;;;32.50
68012;BMP180;54794;48.348;7.878;2022-07-29T14:12:53;98968.00;;;32.40
68012;BMP180;54794;48.348;7.878;2022-07-29T14:15:20;98979.00;;;32.50
68012;BMP180;54794;48.348;7.878;2022-07-29T14:17:47;98976.00;;;32.50
68012;BMP180;54794;48.348;7.878;2022-07-29T14:20:14;98971.00;;;32.50
68012;BMP180;54794;48.348;7.878;2022-07-29T14:22:42;98981.00;;;32.50
68012;BMP180;54794;48.348;7.878;2022-07-29T14:25:11;98975.00;;;32.60
68012;BMP180;54794;48.348;7.878;2022-07-29T14:27:43;98980.00;;;32.60
68012;BMP180;54794;48.348;7.878;2022-07-29T14:30:10;98970.00;;;32.70
68012;BMP180;54794;48.348;7.878;2022-07-29T14:32:37;98979.00;;;32.70
68012;BMP180;54794;48.348;7.878;2022-07-29T14:35:06;98981.00;;;32.80
68012;BMP180;54794;48.348;7.878;2022-07-29T14:37:33;98977.00;;;32.80
68012;BMP180;54794;48.348;7.878;2022-07-29T14:40:08;98982.00;;;32.80
68012;BMP180;54794;48.348;7.878;2022-07-29T14:42:35;98981.00;;;32.90
68012;BMP180;54794;48.348;7.878;2022-07-29T14:45:05;98993.00;;;32.90
68012;BMP180;54794;48.348;7.878;2022-07-29T14:47:33;98983.00;;;32.90
68012;BMP180;54794;48.348;7.878;2022-07-29T14:50:01;98982.00;;;33.00
68012;BMP180;54794;48.348;7.878;2022-07-29T14:52:28;98980.00;;;33.00
68012;BMP180;54794;48.348;7.878;2022-07-29T14:54:55;98982.00;;;33.10
68012;BMP180;54794;48.348;7.878;2022-07-29T14:57:22;98992.00;;;33.10
68012;BMP180;54794;48.348;7.878;2022-07-29T14:59:49;98993.00;;;33.10
68012;BMP180;54794;48.348;7.878;2022-07-29T15:02:16;98996.00;;;33.00
68012;BMP180;54794;48.348;7.878;2022-07-29T15:04:43;98979.00;;;33.00
68012;BMP180;54794;48.348;7.878;2022-07-29T15:07:12;98985.00;;;33.10
68012;BMP180;54794;48.348;7.878;2022-07-29T15:09:39;98994.00;;;33.00
68012;BMP180;54794;48.348;7.878;2022-07-29T15:12:15;98992.00;;;33.10
68012;BMP180;54794;48.348;7.878;2022-07-29T15:14:42;98988.00;;;33.00
68012;BMP180;54794;48.348;7.878;2022-07-29T15:17:09;98990.00;;;33.00
68012;BMP180;54794;48.348;7.878;2022-07-29T15:19:36;98982.00;;;33.00
68012;BMP180;54794;48.348;7.878;2022-07-29T15:22:03;98988.00;;;32.90